Davison Army Air Field
KDAA : now visible

Airfield :











YOU CAN JOIN US ON...

 
LOGIN :

Register | Disclaimer

   EN    FR    IT 

 









Legend :    VFR   Marginal VFR   IFR   Intensive IFR   Very Intensive IFR
Visi :
Ceiling :
>= 8 km
>= 3000ft
5 to 8 km
1000 to 3000 ft
1500m to 5 km
500 to 1000 ft
800 to 1500m
200 to 500 ft
< 800m
< 200 ft
Symbols :   Thunderstorms  Fog  Heavy snow  Heavy precipitations  Wind > 20 kt






- Airport Elevation : 73 ft


KDAA - Davison Army Air Field

CURRENT METAR :
  • 200856Z AUTO 00000KT 5SM BR CLR 05/04 A2995 RMK AO2 SLP145 T00490040 55001 $

EXPIRED METARs :
  • 200756Z AUTO 00000KT 5SM BR CLR 05/04 A2995 RMK AO2 SLP145 T00480039 $
  • 200656Z AUTO 00000KT 6SM BR CLR 05/04 A2995 RMK AO2 SLP145 T00520043 $

TAF TAF KDAA
Valid from the 19 at 20:00 until the 21 at 02:00 UTC


192001Z 1920/2102 19009KT 9999 FEW100 SCT250 QNH2984INS
BECMG 2004/2005 VRB05KT 9999 SKC QNH2992INS
BECMG 2009/2010 VRB03KT 6000 BR SKC QNH2994INS
BECMG 2013/2014 23010KT 9999 NSW FEW050 SCT250 QNH3001INS TX22/2020Z TN06/2011Z LAST NO AMDS AFT 2001 NEXT 2012
KZDC FIR / North America



MET'MAP, your aeronautical weather chart ! - Copyright ORBIFLY December 2007 - Disclaimer

ORBIFLY MET'MAP TEAM :

Programming & Development : Alexandra Zaïnal
Concept & original design : Baudouin d'Aumeries
Assistance for programming : Marc-Olivier Méhu
Technical & hardware support : Manuel Goepfert

Contact : metmap@orbifly.com




SOURCES & CREDITS :

   NOAA       Earth
Advisory